sensor_id;sensor_type;location;lat;lon;timestamp;P1;P2;P0
55549;PMS7003;41397;49.972;18.944;2022-11-15T00:01:08;29;25;14
55549;PMS7003;41397;49.972;18.944;2022-11-15T00:04:10;24;22;15
55549;PMS7003;41397;49.972;18.944;2022-11-15T00:07:11;36;23;12
55549;PMS7003;41397;49.972;18.944;2022-11-15T00:10:12;35;28;17
55549;PMS7003;41397;49.972;18.944;2022-11-15T00:13:15;30;26;13
55549;PMS7003;41397;49.972;18.944;2022-11-15T00:16:17;32;26;15
55549;PMS7003;41397;49.972;18.944;2022-11-15T00:19:18;27;23;16
55549;PMS7003;41397;49.972;18.944;2022-11-15T00:22:19;40;28;19
55549;PMS7003;41397;49.972;18.944;2022-11-15T00:25:23;30;25;15
55549;PMS7003;41397;49.972;18.944;2022-11-15T00:28:24;35;29;17
55549;PMS7003;41397;49.972;18.944;2022-11-15T00:31:26;35;27;17
55549;PMS7003;41397;49.972;18.944;2022-11-15T00:34:27;30;26;15
55549;PMS7003;41397;49.972;18.944;2022-11-15T00:37:31;36;28;16
55549;PMS7003;41397;49.972;18.944;2022-11-15T00:40:32;27;24;15
55549;PMS7003;41397;49.972;18.944;2022-11-15T00:43:33;33;28;17
55549;PMS7003;41397;49.972;18.944;2022-11-15T00:46:35;34;28;17
55549;PMS7003;41397;49.972;18.944;2022-11-15T00:49:39;34;25;17
55549;PMS7003;41397;49.972;18.944;2022-11-15T00:52:42;31;25;16
55549;PMS7003;41397;49.972;18.944;2022-11-15T00:55:44;32;25;15
55549;PMS7003;41397;49.972;18.944;2022-11-15T00:58:45;32;27;15
55549;PMS7003;41397;49.972;18.944;2022-11-15T01:01:47;34;25;16
55549;PMS7003;41397;49.972;18.944;2022-11-15T01:04:48;30;26;16
55549;PMS7003;41397;49.972;18.944;2022-11-15T01:07:53;26;24;15
55549;PMS7003;41397;49.972;18.944;2022-11-15T01:10:59;21;19;10
55549;PMS7003;41397;49.972;18.944;2022-11-15T01:14:05;28;24;14
55549;PMS7003;41397;49.972;18.944;2022-11-15T01:17:06;29;25;17
55549;PMS7003;41397;49.972;18.944;2022-11-15T01:20:07;30;26;15
55549;PMS7003;41397;49.972;18.944;2022-11-15T01:23:09;31;25;16
55549;PMS7003;41397;49.972;18.944;2022-11-15T01:26:11;20;18;13
55549;PMS7003;41397;49.972;18.944;2022-11-15T01:29:14;33;26;16
55549;PMS7003;41397;49.972;18.944;2022-11-15T01:32:15;33;25;15
55549;PMS7003;41397;49.972;18.944;2022-11-15T01:35:16;22;19;11
55549;PMS7003;41397;49.972;18.944;2022-11-15T01:38:18;30;22;14
55549;PMS7003;41397;49.972;18.944;2022-11-15T01:41:20;34;28;16
55549;PMS7003;41397;49.972;18.944;2022-11-15T01:47:37;29;21;10
55549;PMS7003;41397;49.972;18.944;2022-11-15T01:50:43;34;28;17
55549;PMS7003;41397;49.972;18.944;2022-11-15T01:53:46;32;27;15
55549;PMS7003;41397;49.972;18.944;2022-11-15T01:57:01;32;25;15
55549;PMS7003;41397;49.972;18.944;2022-11-15T02:00:06;35;29;17
55549;PMS7003;41397;49.972;18.944;2022-11-15T02:03:08;31;27;16
55549;PMS7003;41397;49.972;18.944;2022-11-15T02:06:10;33;24;14
55549;PMS7003;41397;49.972;18.944;2022-11-15T02:09:11;30;25;16
55549;PMS7003;41397;49.972;18.944;2022-11-15T02:12:15;33;25;15
55549;PMS7003;41397;49.972;18.944;2022-11-15T02:15:19;27;24;16
55549;PMS7003;41397;49.972;18.944;2022-11-15T02:18:23;34;27;14
55549;PMS7003;41397;49.972;18.944;2022-11-15T02:24:55;36;29;17
55549;PMS7003;41397;49.972;18.944;2022-11-15T02:31:20;31;25;16
55549;PMS7003;41397;49.972;18.944;2022-11-15T02:34:35;34;27;16
55549;PMS7003;41397;49.972;18.944;2022-11-15T02:41:03;33;28;17
55549;PMS7003;41397;49.972;18.944;2022-11-15T02:47:26;33;26;16
55549;PMS7003;41397;49.972;18.944;2022-11-15T02:50:32;35;29;18
55549;PMS7003;41397;49.972;18.944;2022-11-15T02:53:34;37;28;17
55549;PMS7003;41397;49.972;18.944;2022-11-15T02:56:35;32;27;17
55549;PMS7003;41397;49.972;18.944;2022-11-15T03:09:25;30;23;15
55549;PMS7003;41397;49.972;18.944;2022-11-15T03:12:40;26;23;15
55549;PMS7003;41397;49.972;18.944;2022-11-15T03:15:52;38;30;19
55549;PMS7003;41397;49.972;18.944;2022-11-15T03:19:02;30;26;16
55549;PMS7003;41397;49.972;18.944;2022-11-15T03:22:15;32;26;18
55549;PMS7003;41397;49.972;18.944;2022-11-15T03:25:20;39;29;16
55549;PMS7003;41397;49.972;18.944;2022-11-15T03:28:28;40;29;14
55549;PMS7003;41397;49.972;18.944;2022-11-15T03:31:38;35;26;17
55549;PMS7003;41397;49.972;18.944;2022-11-15T03:34:53;32;26;14
55549;PMS7003;41397;49.972;18.944;2022-11-15T03:41:16;31;27;16
55549;PMS7003;41397;49.972;18.944;2022-11-15T03:47:40;34;28;17
55549;PMS7003;41397;49.972;18.944;2022-11-15T03:50:47;48;31;18
55549;PMS7003;41397;49.972;18.944;2022-11-15T03:53:49;30;25;18
55549;PMS7003;41397;49.972;18.944;2022-11-15T03:56:51;35;28;17
55549;PMS7003;41397;49.972;18.944;2022-11-15T03:59:52;38;32;19
55549;PMS7003;41397;49.972;18.944;2022-11-15T04:02:53;27;24;16
55549;PMS7003;41397;49.972;18.944;2022-11-15T04:05:55;44;33;20
55549;PMS7003;41397;49.972;18.944;2022-11-15T04:08:56;36;30;18
55549;PMS7003;41397;49.972;18.944;2022-11-15T04:11:57;32;27;17
55549;PMS7003;41397;49.972;18.944;2022-11-15T04:18:11;33;27;16
55549;PMS7003;41397;49.972;18.944;2022-11-15T04:21:12;42;33;19
55549;PMS7003;41397;49.972;18.944;2022-11-15T04:24:25;36;29;18
55549;PMS7003;41397;49.972;18.944;2022-11-15T04:27:27;43;31;17
55549;PMS7003;41397;49.972;18.944;2022-11-15T04:30:28;27;24;16
55549;PMS7003;41397;49.972;18.944;2022-11-15T04:33:29;27;22;16
55549;PMS7003;41397;49.972;18.944;2022-11-15T04:36:30;35;27;17
55549;PMS7003;41397;49.972;18.944;2022-11-15T04:39:43;33;28;18
55549;PMS7003;41397;49.972;18.944;2022-11-15T04:42:45;38;29;18
55549;PMS7003;41397;49.972;18.944;2022-11-15T04:45:46;30;26;17
55549;PMS7003;41397;49.972;18.944;2022-11-15T04:48:47;38;29;17
55549;PMS7003;41397;49.972;18.944;2022-11-15T04:51:48;30;22;13
55549;PMS7003;41397;49.972;18.944;2022-11-15T04:54:49;38;32;17
55549;PMS7003;41397;49.972;18.944;2022-11-15T04:58:00;32;28;17
55549;PMS7003;41397;49.972;18.944;2022-11-15T05:04:09;30;25;16
55549;PMS7003;41397;49.972;18.944;2022-11-15T05:07:22;25;22;15
55549;PMS7003;41397;49.972;18.944;2022-11-15T05:10:27;32;26;15
55549;PMS7003;41397;49.972;18.944;2022-11-15T05:13:28;32;28;17
55549;PMS7003;41397;49.972;18.944;2022-11-15T05:16:29;30;26;16
55549;PMS7003;41397;49.972;18.944;2022-11-15T05:19:30;35;28;17
55549;PMS7003;41397;49.972;18.944;2022-11-15T05:22:35;31;26;18
55549;PMS7003;41397;49.972;18.944;2022-11-15T05:25:36;35;30;20
55549;PMS7003;41397;49.972;18.944;2022-11-15T05:28:38;34;28;18
55549;PMS7003;41397;49.972;18.944;2022-11-15T05:31:39;29;25;16
55549;PMS7003;41397;49.972;18.944;2022-11-15T05:34:43;35;28;17
55549;PMS7003;41397;49.972;18.944;2022-11-15T05:37:46;30;26;17
55549;PMS7003;41397;49.972;18.944;2022-11-15T05:40:47;40;33;19
55549;PMS7003;41397;49.972;18.944;2022-11-15T05:43:48;39;30;18
55549;PMS7003;41397;49.972;18.944;2022-11-15T05:46:52;30;27;18
55549;PMS7003;41397;49.972;18.944;2022-11-15T05:49:55;28;25;15
55549;PMS7003;41397;49.972;18.944;2022-11-15T05:52:58;33;28;19
55549;PMS7003;41397;49.972;18.944;2022-11-15T05:56:00;35;30;18
55549;PMS7003;41397;49.972;18.944;2022-11-15T05:59:01;40;33;21
55549;PMS7003;41397;49.972;18.944;2022-11-15T06:02:03;40;29;18
55549;PMS7003;41397;49.972;18.944;2022-11-15T06:05:05;41;32;19
55549;PMS7003;41397;49.972;18.944;2022-11-15T06:08:06;33;28;18
55549;PMS7003;41397;49.972;18.944;2022-11-15T06:11:07;30;26;17
55549;PMS7003;41397;49.972;18.944;2022-11-15T06:14:09;35;29;19
55549;PMS7003;41397;49.972;18.944;2022-11-15T06:17:10;33;28;20
55549;PMS7003;41397;49.972;18.944;2022-11-15T06:20:11;36;30;16
55549;PMS7003;41397;49.972;18.944;2022-11-15T06:23:16;3;0;0
55549;PMS7003;41397;49.972;18.944;2022-11-15T06:26:17;38;29;18
55549;PMS7003;41397;49.972;18.944;2022-11-15T06:29:18;36;29;18
55549;PMS7003;41397;49.972;18.944;2022-11-15T06:32:19;32;26;17
55549;PMS7003;41397;49.972;18.944;2022-11-15T06:35:24;36;28;18
55549;PMS7003;41397;49.972;18.944;2022-11-15T06:38:25;41;33;20
55549;PMS7003;41397;49.972;18.944;2022-11-15T06:41:27;40;31;20
55549;PMS7003;41397;49.972;18.944;2022-11-15T06:44:28;44;35;22
55549;PMS7003;41397;49.972;18.944;2022-11-15T06:47:32;42;35;20
55549;PMS7003;41397;49.972;18.944;2022-11-15T06:50:33;46;35;21
55549;PMS7003;41397;49.972;18.944;2022-11-15T06:53:34;49;36;24
55549;PMS7003;41397;49.972;18.944;2022-11-15T06:56:36;39;32;21
55549;PMS7003;41397;49.972;18.944;2022-11-15T06:59:40;45;35;22
55549;PMS7003;41397;49.972;18.944;2022-11-15T07:02:41;43;35;21
55549;PMS7003;41397;49.972;18.944;2022-11-15T07:05:49;36;30;19
55549;PMS7003;41397;49.972;18.944;2022-11-15T07:08:55;38;27;17
55549;PMS7003;41397;49.972;18.944;2022-11-15T07:11:56;35;29;19
55549;PMS7003;41397;49.972;18.944;2022-11-15T07:14:57;35;27;16
55549;PMS7003;41397;49.972;18.944;2022-11-15T07:18:02;32;28;19
55549;PMS7003;41397;49.972;18.944;2022-11-15T07:21:04;41;31;17
55549;PMS7003;41397;49.972;18.944;2022-11-15T07:24:07;38;32;20
55549;PMS7003;41397;49.972;18.944;2022-11-15T07:27:08;41;33;20
55549;PMS7003;41397;49.972;18.944;2022-11-15T07:30:10;40;33;20
55549;PMS7003;41397;49.972;18.944;2022-11-15T07:33:12;43;31;19
55549;PMS7003;41397;49.972;18.944;2022-11-15T07:36:13;38;30;20
55549;PMS7003;41397;49.972;18.944;2022-11-15T07:39:14;39;32;22
55549;PMS7003;41397;49.972;18.944;2022-11-15T07:42:15;39;32;20
55549;PMS7003;41397;49.972;18.944;2022-11-15T07:45:29;45;36;21
55549;PMS7003;41397;49.972;18.944;2022-11-15T07:48:30;44;33;20
55549;PMS7003;41397;49.972;18.944;2022-11-15T07:51:32;36;31;18
55549;PMS7003;41397;49.972;18.944;2022-11-15T07:54:33;43;33;19
55549;PMS7003;41397;49.972;18.944;2022-11-15T07:57:35;44;34;22
55549;PMS7003;41397;49.972;18.944;2022-11-15T08:00:36;44;34;20
55549;PMS7003;41397;49.972;18.944;2022-11-15T08:03:40;43;36;23
55549;PMS7003;41397;49.972;18.944;2022-11-15T08:06:41;42;34;21
55549;PMS7003;41397;49.972;18.944;2022-11-15T08:09:42;54;42;23
55549;PMS7003;41397;49.972;18.944;2022-11-15T08:12:44;48;41;24
55549;PMS7003;41397;49.972;18.944;2022-11-15T08:15:48;52;39;22
55549;PMS7003;41397;49.972;18.944;2022-11-15T08:18:50;51;42;24
55549;PMS7003;41397;49.972;18.944;2022-11-15T08:21:51;60;50;26
55549;PMS7003;41397;49.972;18.944;2022-11-15T08:24:52;51;42;25
55549;PMS7003;41397;49.972;18.944;2022-11-15T08:27:59;59;54;33
55549;PMS7003;41397;49.972;18.944;2022-11-15T08:31:02;53;43;25
55549;PMS7003;41397;49.972;18.944;2022-11-15T08:34:04;60;54;25
55549;PMS7003;41397;49.972;18.944;2022-11-15T08:37:06;57;47;29
55549;PMS7003;41397;49.972;18.944;2022-11-15T08:40:07;50;36;23
55549;PMS7003;41397;49.972;18.944;2022-11-15T08:43:10;50;45;27
55549;PMS7003;41397;49.972;18.944;2022-11-15T08:46:12;51;41;25
55549;PMS7003;41397;49.972;18.944;2022-11-15T08:49:14;50;41;26
55549;PMS7003;41397;49.972;18.944;2022-11-15T08:52:15;56;51;30
55549;PMS7003;41397;49.972;18.944;2022-11-15T08:55:16;44;37;23
55549;PMS7003;41397;49.972;18.944;2022-11-15T08:58:18;51;38;23
55549;PMS7003;41397;49.972;18.944;2022-11-15T09:01:20;56;44;28
55549;PMS7003;41397;49.972;18.944;2022-11-15T09:04:23;50;42;26
55549;PMS7003;41397;49.972;18.944;2022-11-15T09:07:33;46;37;23
55549;PMS7003;41397;49.972;18.944;2022-11-15T09:10:35;54;45;23
55549;PMS7003;41397;49.972;18.944;2022-11-15T09:13:37;51;44;28
55549;PMS7003;41397;49.972;18.944;2022-11-15T09:16:39;51;46;25
55549;PMS7003;41397;49.972;18.944;2022-11-15T09:19:40;52;43;27
55549;PMS7003;41397;49.972;18.944;2022-11-15T09:22:41;64;57;29
55549;PMS7003;41397;49.972;18.944;2022-11-15T09:25:42;64;55;33
55549;PMS7003;41397;49.972;18.944;2022-11-15T09:28:43;52;41;26
55549;PMS7003;41397;49.972;18.944;2022-11-15T09:31:45;56;49;28
55549;PMS7003;41397;49.972;18.944;2022-11-15T09:34:46;49;41;25
55549;PMS7003;41397;49.972;18.944;2022-11-15T09:37:47;55;47;28
55549;PMS7003;41397;49.972;18.944;2022-11-15T09:40:49;54;39;26
55549;PMS7003;41397;49.972;18.944;2022-11-15T09:54:02;46;37;24
55549;PMS7003;41397;49.972;18.944;2022-11-15T09:56:50;52;40;25
55549;PMS7003;41397;49.972;18.944;2022-11-15T09:59:59;53;43;25
55549;PMS7003;41397;49.972;18.944;2022-11-15T10:06:24;40;34;23
55549;PMS7003;41397;49.972;18.944;2022-11-15T10:12:39;55;43;26
55549;PMS7003;41397;49.972;18.944;2022-11-15T10:15:47;48;39;25
55549;PMS7003;41397;49.972;18.944;2022-11-15T10:18:52;53;44;26
55549;PMS7003;41397;49.972;18.944;2022-11-15T10:25:17;52;42;23
55549;PMS7003;41397;49.972;18.944;2022-11-15T10:28:29;52;39;26
55549;PMS7003;41397;49.972;18.944;2022-11-15T10:31:31;45;38;26
55549;PMS7003;41397;49.972;18.944;2022-11-15T10:34:34;49;41;26
55549;PMS7003;41397;49.972;18.944;2022-11-15T10:37:36;48;40;27
55549;PMS7003;41397;49.972;18.944;2022-11-15T10:40:38;50;40;26
55549;PMS7003;41397;49.972;18.944;2022-11-15T10:43:41;57;49;29
55549;PMS7003;41397;49.972;18.944;2022-11-15T10:46:43;55;46;26
55549;PMS7003;41397;49.972;18.944;2022-11-15T10:49:55;58;44;26
55549;PMS7003;41397;49.972;18.944;2022-11-15T10:52:59;49;41;24
55549;PMS7003;41397;49.972;18.944;2022-11-15T10:56:05;49;41;25
55549;PMS7003;41397;49.972;18.944;2022-11-15T10:59:14;55;47;27
55549;PMS7003;41397;49.972;18.944;2022-11-15T11:02:27;70;57;28
55549;PMS7003;41397;49.972;18.944;2022-11-15T11:05:35;59;46;28
55549;PMS7003;41397;49.972;18.944;2022-11-15T11:08:38;58;43;27
55549;PMS7003;41397;49.972;18.944;2022-11-15T11:14:53;51;42;27
55549;PMS7003;41397;49.972;18.944;2022-11-15T11:18:14;49;40;25
55549;PMS7003;41397;49.972;18.944;2022-11-15T11:21:11;53;45;25
55549;PMS7003;41397;49.972;18.944;2022-11-15T11:24:18;49;40;27
55549;PMS7003;41397;49.972;18.944;2022-11-15T11:27:32;63;47;29
55549;PMS7003;41397;49.972;18.944;2022-11-15T11:30:45;62;48;28
55549;PMS7003;41397;49.972;18.944;2022-11-15T11:50:20;59;51;29
55549;PMS7003;41397;49.972;18.944;2022-11-15T11:56:35;49;40;26
55549;PMS7003;41397;49.972;18.944;2022-11-15T12:06:06;53;37;25
55549;PMS7003;41397;49.972;18.944;2022-11-15T12:09:38;47;38;26
55549;PMS7003;41397;49.972;18.944;2022-11-15T12:12:31;44;37;24
55549;PMS7003;41397;49.972;18.944;2022-11-15T12:15:50;42;33;23
55549;PMS7003;41397;49.972;18.944;2022-11-15T12:19:03;44;37;23
55549;PMS7003;41397;49.972;18.944;2022-11-15T12:31:51;45;35;24
55549;PMS7003;41397;49.972;18.944;2022-11-15T12:35:01;55;43;27
55549;PMS7003;41397;49.972;18.944;2022-11-15T12:38:04;53;46;28
55549;PMS7003;41397;49.972;18.944;2022-11-15T12:41:16;52;43;28
55549;PMS7003;41397;49.972;18.944;2022-11-15T12:47:33;54;47;32
55549;PMS7003;41397;49.972;18.944;2022-11-15T12:53:47;57;51;33
55549;PMS7003;41397;49.972;18.944;2022-11-15T13:03:25;72;70;45
55549;PMS7003;41397;49.972;18.944;2022-11-15T13:09:49;63;59;41
55549;PMS7003;41397;49.972;18.944;2022-11-15T13:12:57;67;61;38
55549;PMS7003;41397;49.972;18.944;2022-11-15T13:15:59;62;56;33
55549;PMS7003;41397;49.972;18.944;2022-11-15T13:19:02;60;55;34
55549;PMS7003;41397;49.972;18.944;2022-11-15T13:22:08;58;52;31
55549;PMS7003;41397;49.972;18.944;2022-11-15T13:28:44;63;58;34
55549;PMS7003;41397;49.972;18.944;2022-11-15T13:31:52;56;46;26
55549;PMS7003;41397;49.972;18.944;2022-11-15T13:34:53;57;54;28
55549;PMS7003;41397;49.972;18.944;2022-11-15T13:37:56;73;60;36
55549;PMS7003;41397;49.972;18.944;2022-11-15T13:44:21;66;63;35
55549;PMS7003;41397;49.972;18.944;2022-11-15T13:47:28;72;67;41
55549;PMS7003;41397;49.972;18.944;2022-11-15T13:50:33;67;64;37
55549;PMS7003;41397;49.972;18.944;2022-11-15T13:53:38;63;57;39
55549;PMS7003;41397;49.972;18.944;2022-11-15T13:56:53;77;73;40
55549;PMS7003;41397;49.972;18.944;2022-11-15T14:00:03;62;56;35
55549;PMS7003;41397;49.972;18.944;2022-11-15T14:06:23;56;50;29
55549;PMS7003;41397;49.972;18.944;2022-11-15T14:12:38;50;40;26
55549;PMS7003;41397;49.972;18.944;2022-11-15T14:15:39;56;48;31
55549;PMS7003;41397;49.972;18.944;2022-11-15T14:18:42;56;49;27
55549;PMS7003;41397;49.972;18.944;2022-11-15T14:31:33;66;61;36
55549;PMS7003;41397;49.972;18.944;2022-11-15T14:34:36;57;49;30
55549;PMS7003;41397;49.972;18.944;2022-11-15T14:37:43;61;52;31
55549;PMS7003;41397;49.972;18.944;2022-11-15T14:40:48;61;58;32
55549;PMS7003;41397;49.972;18.944;2022-11-15T14:43:50;57;51;30
55549;PMS7003;41397;49.972;18.944;2022-11-15T14:46:52;55;48;30
55549;PMS7003;41397;49.972;18.944;2022-11-15T14:49:53;57;51;30
55549;PMS7003;41397;49.972;18.944;2022-11-15T14:52:54;60;56;32
55549;PMS7003;41397;49.972;18.944;2022-11-15T14:55:56;64;55;29
55549;PMS7003;41397;49.972;18.944;2022-11-15T14:59:00;63;58;35
55549;PMS7003;41397;49.972;18.944;2022-11-15T15:02:01;64;59;33
55549;PMS7003;41397;49.972;18.944;2022-11-15T15:08:16;62;56;33
55549;PMS7003;41397;49.972;18.944;2022-11-15T15:11:26;57;52;31
55549;PMS7003;41397;49.972;18.944;2022-11-15T15:14:29;61;58;37
55549;PMS7003;41397;49.972;18.944;2022-11-15T15:17:37;57;53;33
55549;PMS7003;41397;49.972;18.944;2022-11-15T15:20:38;59;58;34
55549;PMS7003;41397;49.972;18.944;2022-11-15T15:23:41;60;57;32
55549;PMS7003;41397;49.972;18.944;2022-11-15T15:26:42;58;54;32
55549;PMS7003;41397;49.972;18.944;2022-11-15T15:29:44;63;52;33
55549;PMS7003;41397;49.972;18.944;2022-11-15T15:32:45;62;56;35
55549;PMS7003;41397;49.972;18.944;2022-11-15T15:35:46;74;56;34
55549;PMS7003;41397;49.972;18.944;2022-11-15T15:38:48;64;60;37
55549;PMS7003;41397;49.972;18.944;2022-11-15T15:41:49;73;59;39
55549;PMS7003;41397;49.972;18.944;2022-11-15T15:44:50;78;68;38
55549;PMS7003;41397;49.972;18.944;2022-11-15T15:47:52;66;63;38
55549;PMS7003;41397;49.972;18.944;2022-11-15T15:50:53;77;77;39
55549;PMS7003;41397;49.972;18.944;2022-11-15T15:53:55;75;74;42
55549;PMS7003;41397;49.972;18.944;2022-11-15T15:56:58;92;72;41
55549;PMS7003;41397;49.972;18.944;2022-11-15T16:00:03;86;82;45
55549;PMS7003;41397;49.972;18.944;2022-11-15T16:03:05;55;50;32
55549;PMS7003;41397;49.972;18.944;2022-11-15T16:06:23;78;72;44
55549;PMS7003;41397;49.972;18.944;2022-11-15T16:09:23;72;70;48
55549;PMS7003;41397;49.972;18.944;2022-11-15T16:12:40;73;66;43
55549;PMS7003;41397;49.972;18.944;2022-11-15T16:15:41;88;84;54
55549;PMS7003;41397;49.972;18.944;2022-11-15T16:18:43;78;73;46
55549;PMS7003;41397;49.972;18.944;2022-11-15T16:21:45;75;74;42
55549;PMS7003;41397;49.972;18.944;2022-11-15T16:24:48;74;73;43
55549;PMS7003;41397;49.972;18.944;2022-11-15T16:27:50;65;61;39
55549;PMS7003;41397;49.972;18.944;2022-11-15T16:34:04;65;60;37
55549;PMS7003;41397;49.972;18.944;2022-11-15T16:37:18;82;75;42
55549;PMS7003;41397;49.972;18.944;2022-11-15T16:43:46;77;65;42
55549;PMS7003;41397;49.972;18.944;2022-11-15T16:50:31;72;68;40
55549;PMS7003;41397;49.972;18.944;2022-11-15T16:53:45;86;77;45
55549;PMS7003;41397;49.972;18.944;2022-11-15T16:56:51;76;67;43
55549;PMS7003;41397;49.972;18.944;2022-11-15T16:59:55;77;69;40
55549;PMS7003;41397;49.972;18.944;2022-11-15T17:03:06;83;77;45
55549;PMS7003;41397;49.972;18.944;2022-11-15T17:06:10;73;66;45
55549;PMS7003;41397;49.972;18.944;2022-11-15T17:09:21;85;71;46
55549;PMS7003;41397;49.972;18.944;2022-11-15T17:12:42;82;71;43
55549;PMS7003;41397;49.972;18.944;2022-11-15T17:15:46;84;72;44
55549;PMS7003;41397;49.972;18.944;2022-11-15T17:18:55;87;81;46
55549;PMS7003;41397;49.972;18.944;2022-11-15T17:22:01;96;80;45
55549;PMS7003;41397;49.972;18.944;2022-11-15T17:25:03;91;90;54
55549;PMS7003;41397;49.972;18.944;2022-11-15T17:28:05;93;83;45
55549;PMS7003;41397;49.972;18.944;2022-11-15T17:31:10;102;99;59
55549;PMS7003;41397;49.972;18.944;2022-11-15T17:34:19;123;117;68
55549;PMS7003;41397;49.972;18.944;2022-11-15T17:37:25;124;115;71
55549;PMS7003;41397;49.972;18.944;2022-11-15T17:40:27;75;75;40
55549;PMS7003;41397;49.972;18.944;2022-11-15T17:53:22;114;108;56
55549;PMS7003;41397;49.972;18.944;2022-11-15T17:56:28;97;94;58
55549;PMS7003;41397;49.972;18.944;2022-11-15T17:59:46;76;70;49
55549;PMS7003;41397;49.972;18.944;2022-11-15T18:19:59;97;84;47
55549;PMS7003;41397;49.972;18.944;2022-11-15T18:23:15;51;33;24
55549;PMS7003;41397;49.972;18.944;2022-11-15T18:29:49;91;85;48
55549;PMS7003;41397;49.972;18.944;2022-11-15T18:32:51;102;95;57
55549;PMS7003;41397;49.972;18.944;2022-11-15T18:35:58;72;72;49
55549;PMS7003;41397;49.972;18.944;2022-11-15T18:39:14;124;105;56
55549;PMS7003;41397;49.972;18.944;2022-11-15T18:42:16;103;96;57
55549;PMS7003;41397;49.972;18.944;2022-11-15T18:45:23;111;106;58
55549;PMS7003;41397;49.972;18.944;2022-11-15T18:48:42;113;104;61
55549;PMS7003;41397;49.972;18.944;2022-11-15T18:51:44;104;92;52
55549;PMS7003;41397;49.972;18.944;2022-11-15T18:55:01;101;101;57
55549;PMS7003;41397;49.972;18.944;2022-11-15T18:58:26;90;90;60
55549;PMS7003;41397;49.972;18.944;2022-11-15T19:01:25;108;96;56
55549;PMS7003;41397;49.972;18.944;2022-11-15T19:04:42;113;103;62
55549;PMS7003;41397;49.972;18.944;2022-11-15T19:07:52;143;127;71
55549;PMS7003;41397;49.972;18.944;2022-11-15T19:11:00;114;102;61
55549;PMS7003;41397;49.972;18.944;2022-11-15T19:17:16;138;110;61
55549;PMS7003;41397;49.972;18.944;2022-11-15T19:20:17;126;106;63
55549;PMS7003;41397;49.972;18.944;2022-11-15T19:23:20;110;104;59
55549;PMS7003;41397;49.972;18.944;2022-11-15T19:26:22;114;97;59
55549;PMS7003;41397;49.972;18.944;2022-11-15T19:29:25;106;101;56
55549;PMS7003;41397;49.972;18.944;2022-11-15T19:32:43;102;94;50
55549;PMS7003;41397;49.972;18.944;2022-11-15T19:35:45;85;79;44
55549;PMS7003;41397;49.972;18.944;2022-11-15T19:38:46;96;90;55
55549;PMS7003;41397;49.972;18.944;2022-11-15T19:41:51;92;87;53
55549;PMS7003;41397;49.972;18.944;2022-11-15T19:44:53;109;94;57
55549;PMS7003;41397;49.972;18.944;2022-11-15T19:47:54;97;89;49
55549;PMS7003;41397;49.972;18.944;2022-11-15T19:51:04;93;89;49
55549;PMS7003;41397;49.972;18.944;2022-11-15T19:54:07;105;99;53
55549;PMS7003;41397;49.972;18.944;2022-11-15T19:57:10;108;103;52
55549;PMS7003;41397;49.972;18.944;2022-11-15T20:00:11;99;91;52
55549;PMS7003;41397;49.972;18.944;2022-11-15T20:03:12;85;83;53
55549;PMS7003;41397;49.972;18.944;2022-11-15T20:06:15;105;87;53
55549;PMS7003;41397;49.972;18.944;2022-11-15T20:09:18;95;92;52
55549;PMS7003;41397;49.972;18.944;2022-11-15T20:12:20;83;77;45
55549;PMS7003;41397;49.972;18.944;2022-11-15T20:15:21;74;70;44
55549;PMS7003;41397;49.972;18.944;2022-11-15T20:18:27;89;83;43
55549;PMS7003;41397;49.972;18.944;2022-11-15T20:21:35;92;85;50
55549;PMS7003;41397;49.972;18.944;2022-11-15T20:24:36;85;80;44
55549;PMS7003;41397;49.972;18.944;2022-11-15T20:27:37;101;90;44
55549;PMS7003;41397;49.972;18.944;2022-11-15T20:30:38;92;84;47
55549;PMS7003;41397;49.972;18.944;2022-11-15T20:33:44;76;75;50
55549;PMS7003;41397;49.972;18.944;2022-11-15T20:36:45;86;85;51
55549;PMS7003;41397;49.972;18.944;2022-11-15T20:39:46;99;95;53
55549;PMS7003;41397;49.972;18.944;2022-11-15T20:42:51;80;78;45
55549;PMS7003;41397;49.972;18.944;2022-11-15T20:45:53;109;102;59
55549;PMS7003;41397;49.972;18.944;2022-11-15T20:56:08;82;75;45
55549;PMS7003;41397;49.972;18.944;2022-11-15T21:06:15;73;67;47
55549;PMS7003;41397;49.972;18.944;2022-11-15T21:09:23;75;75;44
55549;PMS7003;41397;49.972;18.944;2022-11-15T21:12:39;84;82;47
55549;PMS7003;41397;49.972;18.944;2022-11-15T21:15:40;59;58;36
55549;PMS7003;41397;49.972;18.944;2022-11-15T21:18:42;79;69;39
55549;PMS7003;41397;49.972;18.944;2022-11-15T21:21:43;69;65;43
55549;PMS7003;41397;49.972;18.944;2022-11-15T21:24:44;79;74;41
55549;PMS7003;41397;49.972;18.944;2022-11-15T21:27:45;70;70;44
55549;PMS7003;41397;49.972;18.944;2022-11-15T21:33:55;75;70;39
55549;PMS7003;41397;49.972;18.944;2022-11-15T21:36:56;63;59;36
55549;PMS7003;41397;49.972;18.944;2022-11-15T21:39:58;78;66;36
55549;PMS7003;41397;49.972;18.944;2022-11-15T21:42:59;68;63;41
55549;PMS7003;41397;49.972;18.944;2022-11-15T21:46:01;65;53;33
55549;PMS7003;41397;49.972;18.944;2022-11-15T21:49:05;66;60;34
55549;PMS7003;41397;49.972;18.944;2022-11-15T21:52:07;61;58;41
55549;PMS7003;41397;49.972;18.944;2022-11-15T21:55:08;75;66;41
55549;PMS7003;41397;49.972;18.944;2022-11-15T21:58:09;70;68;42
55549;PMS7003;41397;49.972;18.944;2022-11-15T22:01:11;79;73;46
55549;PMS7003;41397;49.972;18.944;2022-11-15T22:04:24;96;85;51
55549;PMS7003;41397;49.972;18.944;2022-11-15T22:07:26;90;84;46
55549;PMS7003;41397;49.972;18.944;2022-11-15T22:10:27;88;78;47
55549;PMS7003;41397;49.972;18.944;2022-11-15T22:13:29;93;85;45
55549;PMS7003;41397;49.972;18.944;2022-11-15T22:16:30;77;74;44
55549;PMS7003;41397;49.972;18.944;2022-11-15T22:19:34;109;84;48
55549;PMS7003;41397;49.972;18.944;2022-11-15T22:22:36;81;79;49
55549;PMS7003;41397;49.972;18.944;2022-11-15T22:25:37;102;87;50
55549;PMS7003;41397;49.972;18.944;2022-11-15T22:28:39;95;85;46
55549;PMS7003;41397;49.972;18.944;2022-11-15T22:31:43;101;95;52
55549;PMS7003;41397;49.972;18.944;2022-11-15T22:34:44;96;88;54
55549;PMS7003;41397;49.972;18.944;2022-11-15T22:37:45;116;96;59
55549;PMS7003;41397;49.972;18.944;2022-11-15T22:40:47;118;106;63
55549;PMS7003;41397;49.972;18.944;2022-11-15T22:43:51;126;114;61